createdAt,value
2022-10-22T00:00:54.576Z,100436.63
2022-10-22T00:03:22.379Z,100437.09
2022-10-22T00:05:50.108Z,100441.78
2022-10-22T00:08:17.654Z,100440.38
2022-10-22T00:10:45.395Z,100430.31
2022-10-22T00:13:13.218Z,100428.34
2022-10-22T00:15:41.067Z,100419.56
2022-10-22T00:18:10.584Z,100411.81
2022-10-22T00:20:38.346Z,100414.78
2022-10-22T00:23:06.245Z,100418.16
2022-10-22T00:25:36.526Z,100399.44
2022-10-22T00:28:06.342Z,100399.78
2022-10-22T00:30:34.044Z,100401.78
2022-10-22T00:33:01.763Z,100402.03
2022-10-22T00:35:33.662Z,100399.81
2022-10-22T00:38:01.211Z,100405.97
2022-10-22T00:40:28.968Z,100396.28
2022-10-22T00:42:56.916Z,100397.22
2022-10-22T00:45:26.101Z,100398.28
2022-10-22T00:47:58.109Z,100388.81
2022-10-22T00:50:29.767Z,100390.78
2022-10-22T00:52:59.363Z,100391.81
2022-10-22T00:55:28.257Z,100392.28
2022-10-22T00:57:57.157Z,100396.16
2022-10-22T01:00:25.194Z,100398.25
2022-10-22T01:02:53.656Z,100394.28
2022-10-22T01:05:22.028Z,100388.34
2022-10-22T01:07:52.059Z,100383.66
2022-10-22T01:10:32.045Z,100376.19
2022-10-22T01:13:11.428Z,100363.91
2022-10-22T01:15:45.545Z,100358.41
2022-10-22T01:18:19.026Z,100350.00
2022-10-22T01:20:58.191Z,100351.41
2022-10-22T01:23:40.240Z,100349.41
2022-10-22T01:26:16.436Z,100347.28
2022-10-22T01:28:53.454Z,100348.47
2022-10-22T01:31:22.952Z,100334.19
2022-10-22T01:33:51.158Z,100336.53
2022-10-22T01:36:19.022Z,100328.13
2022-10-22T01:38:47.116Z,100332.44
2022-10-22T01:41:15.583Z,100334.22
2022-10-22T01:43:43.887Z,100326.97
2022-10-22T01:46:13.834Z,100333.38
2022-10-22T01:48:49.006Z,100328.59
2022-10-22T01:51:38.384Z,100318.78
2022-10-22T01:54:12.746Z,100319.47
2022-10-22T01:56:54.919Z,100312.47
2022-10-22T01:59:33.328Z,100311.28
2022-10-22T02:02:06.918Z,100306.16
2022-10-22T02:04:36.907Z,100303.34
2022-10-22T02:07:07.846Z,100303.00
2022-10-22T02:09:37.101Z,100296.44
2022-10-22T02:12:07.127Z,100305.22
2022-10-22T02:14:37.017Z,100310.72
2022-10-22T02:17:12.250Z,100305.34
2022-10-22T02:19:43.333Z,100303.81
2022-10-22T02:22:12.209Z,100304.50
2022-10-22T02:24:40.289Z,100302.31
2022-10-22T02:27:12.007Z,100302.16
2022-10-22T02:29:42.290Z,100308.22
2022-10-22T02:32:14.048Z,100308.88
2022-10-22T02:34:41.975Z,100313.34
2022-10-22T02:37:10.444Z,100318.44
2022-10-22T02:39:38.414Z,100320.34
2022-10-22T02:42:06.567Z,100332.47
2022-10-22T02:44:34.113Z,100346.63
2022-10-22T02:47:01.746Z,100337.25
2022-10-22T02:49:34.866Z,100351.38
2022-10-22T02:52:02.606Z,100349.75
2022-10-22T02:54:30.407Z,100347.06
2022-10-22T02:56:58.123Z,100355.16
2022-10-22T02:59:25.782Z,100370.34
2022-10-22T03:01:53.429Z,100366.81
2022-10-22T03:04:21.256Z,100373.06
2022-10-22T03:06:50.599Z,100375.28
2022-10-22T03:09:21.346Z,100376.28
2022-10-22T03:11:53.158Z,100382.53
2022-10-22T03:14:21.179Z,100384.75
2022-10-22T03:16:48.936Z,100387.53
2022-10-22T03:19:16.487Z,100396.03
2022-10-22T03:21:47.338Z,100408.91
2022-10-22T03:24:18.766Z,100418.81
2022-10-22T03:26:47.231Z,100407.50
2022-10-22T03:29:16.254Z,100419.88
2022-10-22T03:31:45.122Z,100433.75
2022-10-22T03:34:13.598Z,100442.66
2022-10-22T03:36:42.001Z,100434.63
2022-10-22T03:39:10.054Z,100430.59
2022-10-22T03:41:39.018Z,100447.44
2022-10-22T03:44:07.273Z,100434.31
2022-10-22T03:46:35.149Z,100436.31
2022-10-22T03:49:02.734Z,100438.06
2022-10-22T03:51:30.442Z,100451.31
2022-10-22T03:53:58.517Z,100456.06
2022-10-22T03:56:26.897Z,100452.84
2022-10-22T03:58:57.423Z,100442.16
2022-10-22T04:01:26.578Z,100459.69
2022-10-22T04:03:54.297Z,100464.53
2022-10-22T04:06:22.561Z,100460.13
2022-10-22T04:08:50.492Z,100480.72
2022-10-22T04:11:18.860Z,100468.75
2022-10-22T04:13:46.616Z,100480.97
2022-10-22T04:16:17.234Z,100475.19
2022-10-22T04:18:46.023Z,100493.16
2022-10-22T04:21:15.287Z,100502.97
2022-10-22T04:23:45.953Z,100507.44
2022-10-22T04:26:13.753Z,100510.81
2022-10-22T04:28:41.636Z,100505.03
2022-10-22T04:31:10.570Z,100513.44
2022-10-22T04:33:41.154Z,100528.34
2022-10-22T04:36:09.971Z,100531.94
2022-10-22T04:38:37.706Z,100545.09
2022-10-22T04:41:12.625Z,100552.44
2022-10-22T04:43:40.800Z,100552.28
2022-10-22T04:46:09.373Z,100559.25
2022-10-22T04:48:37.207Z,100555.91
2022-10-22T04:51:07.728Z,100552.47
2022-10-22T04:53:36.714Z,100548.13
2022-10-22T04:56:12.789Z,100563.47
2022-10-22T04:58:41.199Z,100560.00
2022-10-22T05:01:13.731Z,100564.25
2022-10-22T05:03:41.545Z,100564.78
2022-10-22T05:08:44.398Z,100568.31
2022-10-22T05:11:13.802Z,100569.88
2022-10-22T05:13:41.608Z,100573.00
2022-10-22T05:16:09.612Z,100577.00
2022-10-22T05:18:37.920Z,100578.06
2022-10-22T05:21:06.232Z,100575.31
2022-10-22T05:23:35.367Z,100593.66
2022-10-22T05:26:03.829Z,100589.16
2022-10-22T05:28:32.052Z,100578.25
2022-10-22T05:31:01.204Z,100595.38
2022-10-22T05:33:30.068Z,100606.13
2022-10-22T05:35:58.331Z,100605.16
2022-10-22T05:38:27.328Z,100606.06
2022-10-22T05:41:07.475Z,100613.19
2022-10-22T05:43:36.018Z,100601.38
2022-10-22T05:46:05.173Z,100615.56
2022-10-22T05:51:04.615Z,100615.63
2022-10-22T05:53:33.177Z,100613.88
2022-10-22T05:56:02.725Z,100617.41
2022-10-22T05:58:32.270Z,100612.16
2022-10-22T06:01:04.738Z,100620.88
2022-10-22T06:03:32.750Z,100624.81
2022-10-22T06:06:02.006Z,100618.38
2022-10-22T06:08:30.435Z,100622.72
2022-10-22T06:10:58.131Z,100609.72
2022-10-22T06:13:25.746Z,100624.16
2022-10-22T06:15:55.009Z,100626.25
2022-10-22T06:18:22.708Z,100644.16
2022-10-22T06:20:50.312Z,100631.19
2022-10-22T06:23:17.854Z,100639.53
2022-10-22T06:25:45.581Z,100644.13
2022-10-22T06:28:13.500Z,100647.84
2022-10-22T06:30:44.341Z,100654.69
2022-10-22T06:33:15.678Z,100660.53
2022-10-22T06:35:43.392Z,100651.84
2022-10-22T06:38:11.128Z,100653.91
2022-10-22T06:40:38.738Z,100653.06
2022-10-22T06:43:06.600Z,100655.69
2022-10-22T06:45:34.338Z,100662.25
2022-10-22T06:48:01.932Z,100659.03
2022-10-22T06:50:31.018Z,100661.94
2022-10-22T06:53:00.057Z,100653.97
2022-10-22T06:55:27.603Z,100665.47
2022-10-22T06:57:56.272Z,100669.22
2022-10-22T07:00:23.949Z,100660.53
2022-10-22T07:02:57.640Z,100660.31
2022-10-22T07:05:27.131Z,100664.94
2022-10-22T07:07:59.367Z,100663.34
2022-10-22T07:10:29.909Z,100656.91
2022-10-22T07:12:59.274Z,100668.75
2022-10-22T07:15:27.835Z,100666.84
2022-10-22T07:17:55.428Z,100668.25
2022-10-22T07:20:23.424Z,100666.97
2022-10-22T07:22:51.080Z,100672.09
2022-10-22T07:25:20.113Z,100664.97
2022-10-22T07:27:47.680Z,100661.84
2022-10-22T07:30:15.562Z,100658.69
2022-10-22T07:32:43.226Z,100653.09
2022-10-22T07:35:11.126Z,100653.56
2022-10-22T07:37:39.295Z,100634.72
2022-10-22T07:40:08.551Z,100624.88
2022-10-22T07:42:37.827Z,100618.78
2022-10-22T07:45:06.231Z,100606.84
2022-10-22T07:47:33.797Z,100603.09
2022-10-22T07:50:01.561Z,100604.47
2022-10-22T07:52:29.461Z,100589.50
2022-10-22T07:54:57.319Z,100587.50
2022-10-22T07:57:25.203Z,100580.22
2022-10-22T07:59:54.296Z,100583.34
2022-10-22T08:02:22.292Z,100579.50
2022-10-22T08:04:49.905Z,100570.94
2022-10-22T08:07:17.751Z,100568.22
2022-10-22T08:09:45.733Z,100559.53
2022-10-22T08:12:13.485Z,100562.44
2022-10-22T08:14:41.211Z,100552.91
2022-10-22T08:17:10.239Z,100534.59
2022-10-22T08:19:37.961Z,100532.66
2022-10-22T08:22:06.156Z,100519.66
2022-10-22T08:24:33.912Z,100521.56
2022-10-22T08:27:01.610Z,100525.56
2022-10-22T08:29:30.125Z,100522.41
2022-10-22T08:31:58.020Z,100521.72
2022-10-22T08:34:29.746Z,100492.75
2022-10-22T08:36:57.480Z,100481.53
2022-10-22T08:39:26.083Z,100484.31
2022-10-22T08:42:06.111Z,100494.56
2022-10-22T08:44:50.807Z,100482.50
2022-10-22T08:47:32.188Z,100485.47
2022-10-22T08:50:01.489Z,100490.09
2022-10-22T08:52:29.414Z,100484.00
2022-10-22T08:54:59.396Z,100482.06
2022-10-22T08:57:40.372Z,100489.34
2022-10-22T09:00:12.867Z,100489.50
2022-10-22T09:02:49.452Z,100479.16
2022-10-22T09:05:34.344Z,100463.84
2022-10-22T09:08:02.484Z,100470.03
2022-10-22T09:10:34.606Z,100457.31
2022-10-22T09:13:02.435Z,100459.28
2022-10-22T09:15:31.378Z,100441.00
2022-10-22T09:18:11.940Z,100438.50
2022-10-22T09:20:48.731Z,100429.75
2022-10-22T09:23:27.060Z,100421.81
2022-10-22T09:25:55.456Z,100421.66
2022-10-22T09:28:23.436Z,100429.84
2022-10-22T09:30:51.390Z,100420.19
2022-10-22T09:33:24.744Z,100415.06
2022-10-22T09:35:55.673Z,100418.41
2022-10-22T09:38:26.803Z,100428.47
2022-10-22T09:40:56.920Z,100427.09
2022-10-22T09:43:24.746Z,100417.41
2022-10-22T09:45:57.938Z,100427.03
2022-10-22T09:48:31.430Z,100429.47
2022-10-22T09:51:06.467Z,100441.06
2022-10-22T09:53:39.114Z,100433.84
2022-10-22T09:56:10.295Z,100442.53
2022-10-22T09:58:45.192Z,100438.66
2022-10-22T10:01:19.096Z,100444.16
2022-10-22T10:03:47.040Z,100443.53
2022-10-22T10:06:19.204Z,100446.31
2022-10-22T10:08:47.152Z,100448.44
2022-10-22T10:11:21.591Z,100464.19
2022-10-22T10:13:57.563Z,100460.69
2022-10-22T10:16:38.673Z,100458.13
2022-10-22T10:19:20.855Z,100466.03
2022-10-22T10:21:57.294Z,100467.00
2022-10-22T10:24:29.729Z,100462.69
2022-10-22T10:27:01.275Z,100469.28
2022-10-22T10:32:21.133Z,100472.25
2022-10-22T10:34:56.957Z,100482.16
2022-10-22T10:37:28.205Z,100478.97
2022-10-22T10:40:09.784Z,100482.22
2022-10-22T10:42:43.641Z,100485.03
2022-10-22T10:45:18.606Z,100478.41
2022-10-22T10:48:09.521Z,100477.00
2022-10-22T10:50:41.901Z,100486.50
2022-10-22T10:53:16.206Z,100487.84
2022-10-22T10:55:54.822Z,100484.66
2022-10-22T10:58:27.329Z,100487.50
2022-10-22T11:00:57.829Z,100483.75
2022-10-22T11:03:40.947Z,100492.06
2022-10-22T11:06:11.194Z,100486.16
2022-10-22T11:08:43.611Z,100480.53
2022-10-22T11:13:52.609Z,100467.69
2022-10-22T11:16:23.275Z,100480.16
2022-10-22T11:18:54.976Z,100480.91
2022-10-22T11:21:26.693Z,100478.13
2022-10-22T11:23:59.287Z,100487.28
2022-10-22T11:26:35.105Z,100484.00
2022-10-22T11:29:04.698Z,100485.88
2022-10-22T11:31:33.335Z,100495.28
2022-10-22T11:34:28.418Z,100498.00
2022-10-22T11:36:55.820Z,100499.66
2022-10-22T11:39:40.700Z,100506.16
2022-10-22T11:42:12.039Z,100503.09
2022-10-22T11:44:57.232Z,100521.75
2022-10-22T11:47:26.700Z,100517.16
2022-10-22T11:49:59.878Z,100517.28
2022-10-22T11:52:39.617Z,100517.44
2022-10-22T11:55:32.771Z,100518.88
2022-10-22T11:58:01.627Z,100522.47
2022-10-22T12:00:35.759Z,100525.00
2022-10-22T12:03:06.114Z,100522.63
2022-10-22T12:05:37.870Z,100529.16
2022-10-22T12:08:17.071Z,100525.56
2022-10-22T12:10:59.562Z,100540.28
2022-10-22T12:13:32.269Z,100540.47
2022-10-22T12:16:01.195Z,100551.75
2022-10-22T12:18:35.632Z,100545.56
2022-10-22T12:21:03.526Z,100552.56
2022-10-22T12:23:33.273Z,100558.63
2022-10-22T12:26:02.442Z,100554.63
2022-10-22T12:28:30.143Z,100570.56
2022-10-22T12:31:00.939Z,100574.66
2022-10-22T12:33:32.621Z,100570.09
2022-10-22T12:36:04.210Z,100581.84
2022-10-22T12:38:31.969Z,100588.94
2022-10-22T12:40:59.962Z,100580.06
2022-10-22T12:43:31.110Z,100589.78
2022-10-22T12:46:00.239Z,100590.22
2022-10-22T12:48:30.719Z,100590.06
2022-10-22T12:51:01.619Z,100579.75
2022-10-22T12:53:31.984Z,100568.16
2022-10-22T12:56:03.159Z,100560.41
2022-10-22T12:58:35.769Z,100562.53
2022-10-22T13:01:03.484Z,100557.56
2022-10-22T13:03:38.573Z,100560.41
2022-10-22T13:06:13.697Z,100564.97
2022-10-22T13:08:41.350Z,100558.13
2022-10-22T13:11:11.031Z,100559.34
2022-10-22T13:13:47.193Z,100551.88
2022-10-22T13:16:18.240Z,100559.97
2022-10-22T13:18:47.665Z,100547.16
2022-10-22T13:21:27.822Z,100546.22
2022-10-22T13:23:59.137Z,100546.47
2022-10-22T13:26:32.307Z,100533.66
2022-10-22T13:29:02.417Z,100534.34
2022-10-22T13:31:33.407Z,100526.25
2022-10-22T13:34:09.852Z,100526.13
2022-10-22T13:36:39.619Z,100522.56
2022-10-22T13:39:08.076Z,100517.47
2022-10-22T13:44:09.633Z,100513.00
2022-10-22T13:46:43.459Z,100523.44
2022-10-22T13:49:15.270Z,100531.75
2022-10-22T13:51:43.652Z,100537.63
2022-10-22T13:54:15.025Z,100531.09
2022-10-22T13:56:42.800Z,100533.72
2022-10-22T13:59:11.773Z,100533.59
2022-10-22T14:01:39.932Z,100538.75
2022-10-22T14:04:09.015Z,100543.03
2022-10-22T14:09:09.054Z,100545.50
2022-10-22T14:11:36.852Z,100550.03
2022-10-22T14:14:08.932Z,100543.16
2022-10-22T14:16:38.386Z,100544.22
2022-10-22T14:19:08.043Z,100548.28
2022-10-22T14:21:38.472Z,100552.06
2022-10-22T14:24:08.436Z,100543.25
2022-10-22T14:26:38.410Z,100554.81
2022-10-22T14:29:10.679Z,100552.06
2022-10-22T14:31:42.300Z,100549.63
2022-10-22T14:34:11.747Z,100547.44
2022-10-22T14:36:39.669Z,100556.00
2022-10-22T14:39:07.226Z,100555.75
2022-10-22T14:41:35.106Z,100559.28
2022-10-22T14:44:02.883Z,100553.91
2022-10-22T14:46:30.613Z,100564.38
2022-10-22T14:49:03.221Z,100557.84
2022-10-22T14:51:31.133Z,100562.31
2022-10-22T14:53:58.828Z,100556.03
2022-10-22T14:56:26.617Z,100562.81
2022-10-22T14:58:54.663Z,100562.81
2022-10-22T15:01:22.227Z,100555.22
2022-10-22T15:03:49.969Z,100557.22
2022-10-22T15:06:18.994Z,100555.81
2022-10-22T15:08:46.970Z,100554.66
2022-10-22T15:11:14.731Z,100563.94
2022-10-22T15:13:42.442Z,100553.50
2022-10-22T15:16:11.263Z,100563.41
2022-10-22T15:18:38.910Z,100558.13
2022-10-22T15:21:08.547Z,100563.22
2022-10-22T15:23:40.735Z,100562.19
2022-10-22T15:26:08.570Z,100558.31
2022-10-22T15:28:37.278Z,100561.66
2022-10-22T15:31:05.188Z,100559.97
2022-10-22T15:33:32.824Z,100571.00
2022-10-22T15:36:10.853Z,100568.97
2022-10-22T15:38:40.152Z,100568.94
2022-10-22T15:41:10.102Z,100567.81
2022-10-22T15:43:38.041Z,100570.09
2022-10-22T15:46:14.276Z,100579.41
2022-10-22T15:48:42.436Z,100583.50
2022-10-22T15:51:11.327Z,100591.00
2022-10-22T15:53:40.752Z,100587.06
2022-10-22T15:56:09.223Z,100593.56
2022-10-22T15:58:36.710Z,100602.31
2022-10-22T16:01:10.225Z,100589.72
2022-10-22T16:03:38.707Z,100600.28
2022-10-22T16:06:07.454Z,100611.47
2022-10-22T16:08:35.970Z,100605.50
2022-10-22T16:11:05.656Z,100606.09
2022-10-22T16:13:33.373Z,100616.88
2022-10-22T16:16:06.447Z,100618.88
2022-10-22T16:18:34.055Z,100632.38
2022-10-22T16:21:01.929Z,100633.53
2022-10-22T16:23:29.680Z,100644.44
2022-10-22T16:25:57.252Z,100643.84
2022-10-22T16:28:26.531Z,100656.97
2022-10-22T16:30:54.448Z,100656.91
2022-10-22T16:33:22.117Z,100656.91
2022-10-22T16:35:49.737Z,100657.88
2022-10-22T16:38:18.780Z,100653.94
2022-10-22T16:40:46.596Z,100653.44
2022-10-22T16:43:14.097Z,100660.19
2022-10-22T16:45:50.009Z,100658.03
2022-10-22T16:48:18.100Z,100668.28
2022-10-22T16:50:46.324Z,100665.28
2022-10-22T16:53:14.255Z,100677.19
2022-10-22T16:55:42.201Z,100693.03
2022-10-22T16:58:09.939Z,100691.66
2022-10-22T17:00:37.861Z,100688.09
2022-10-22T17:03:10.517Z,100697.69
2022-10-22T17:05:38.384Z,100699.19
2022-10-22T17:08:07.245Z,100714.06
2022-10-22T17:10:36.733Z,100725.41
2022-10-22T17:13:04.886Z,100736.97
2022-10-22T17:15:32.897Z,100735.78
2022-10-22T17:18:01.075Z,100742.06
2022-10-22T17:20:30.140Z,100748.88
2022-10-22T17:22:57.958Z,100756.56
2022-10-22T17:25:27.031Z,100767.50
2022-10-22T17:27:55.084Z,100762.72
2022-10-22T17:30:25.088Z,100767.25
2022-10-22T17:32:54.978Z,100768.09
2022-10-22T17:35:22.824Z,100770.66
2022-10-22T17:37:51.860Z,100771.34
2022-10-22T17:40:21.787Z,100775.06
2022-10-22T17:42:49.830Z,100777.56
2022-10-22T17:45:17.571Z,100784.13
2022-10-22T17:47:45.502Z,100785.97
2022-10-22T17:50:13.266Z,100785.41
2022-10-22T17:52:42.663Z,100797.53
2022-10-22T17:55:13.596Z,100806.88
2022-10-22T17:57:41.600Z,100807.16
2022-10-22T18:00:11.123Z,100811.28
2022-10-22T18:02:39.924Z,100814.59
2022-10-22T18:05:08.667Z,100817.50
2022-10-22T18:07:36.276Z,100817.28
2022-10-22T18:10:03.910Z,100822.47
2022-10-22T18:12:33.058Z,100824.13
2022-10-22T18:15:00.781Z,100820.41
2022-10-22T18:17:28.521Z,100834.63
2022-10-22T18:19:56.369Z,100828.63
2022-10-22T18:22:24.981Z,100834.00
2022-10-22T18:24:53.190Z,100832.78
2022-10-22T18:27:21.554Z,100838.94
2022-10-22T18:29:51.937Z,100842.06
2022-10-22T18:32:19.489Z,100832.78
2022-10-22T18:34:48.131Z,100836.28
2022-10-22T18:37:15.635Z,100841.03
2022-10-22T18:39:43.192Z,100842.91
2022-10-22T18:42:11.175Z,100838.97
2022-10-22T18:44:38.772Z,100839.81
2022-10-22T18:47:08.605Z,100842.69
2022-10-22T18:49:36.393Z,100844.72
2022-10-22T18:52:04.120Z,100844.72
2022-10-22T18:54:32.064Z,100846.81
2022-10-22T18:57:02.854Z,100848.19
2022-10-22T18:59:31.141Z,100847.63
2022-10-22T19:01:59.892Z,100863.28
2022-10-22T19:04:33.336Z,100861.84
2022-10-22T19:07:01.158Z,100871.13
2022-10-22T19:09:29.170Z,100870.72
2022-10-22T19:11:56.766Z,100865.13
2022-10-22T19:14:24.524Z,100850.06
2022-10-22T19:16:52.299Z,100846.78
2022-10-22T19:19:21.490Z,100848.47
2022-10-22T19:21:50.805Z,100845.94
2022-10-22T19:24:20.520Z,100845.31
2022-10-22T19:26:48.860Z,100848.63
2022-10-22T19:29:18.202Z,100843.44
2022-10-22T19:31:46.361Z,100844.91
2022-10-22T19:34:14.675Z,100850.66
2022-10-22T19:36:42.401Z,100852.09
2022-10-22T19:39:11.851Z,100849.22
2022-10-22T19:41:40.195Z,100864.44
2022-10-22T19:44:07.944Z,100853.97
2022-10-22T19:46:35.605Z,100859.09
2022-10-22T19:49:04.137Z,100860.13
2022-10-22T19:51:33.381Z,100852.50
2022-10-22T19:54:02.324Z,100861.97
2022-10-22T19:56:31.961Z,100868.16
2022-10-22T19:59:00.122Z,100857.84
2022-10-22T20:01:28.549Z,100858.25
2022-10-22T20:03:56.694Z,100859.69
2022-10-22T20:06:24.857Z,100859.66
2022-10-22T20:08:55.947Z,100862.31
2022-10-22T20:11:25.726Z,100869.84
2022-10-22T20:13:55.035Z,100862.81
2022-10-22T20:16:24.256Z,100859.69
2022-10-22T20:18:52.081Z,100869.78
2022-10-22T20:21:20.743Z,100860.09
2022-10-22T20:23:49.431Z,100854.50
2022-10-22T20:26:17.200Z,100850.38
2022-10-22T20:28:45.137Z,100857.00
2022-10-22T20:31:17.392Z,100847.94
2022-10-22T20:33:45.022Z,100863.41
2022-10-22T20:36:14.994Z,100868.34
2022-10-22T20:38:43.225Z,100859.88
2022-10-22T20:41:13.344Z,100867.75
2022-10-22T20:43:41.259Z,100860.94
2022-10-22T20:46:08.779Z,100861.75
2022-10-22T20:48:39.651Z,100856.41
2022-10-22T20:51:07.210Z,100859.47
2022-10-22T20:53:35.077Z,100860.53
2022-10-22T20:56:02.910Z,100869.78
2022-10-22T20:58:30.879Z,100864.44
2022-10-22T21:00:58.768Z,100870.56
2022-10-22T21:03:26.393Z,100874.53
2022-10-22T21:05:55.489Z,100875.13
2022-10-22T21:08:23.222Z,100881.72
2022-10-22T21:10:50.938Z,100881.09
2022-10-22T21:13:19.654Z,100887.06
2022-10-22T21:15:47.549Z,100881.31
2022-10-22T21:18:15.069Z,100871.00
2022-10-22T21:20:42.892Z,100872.41
2022-10-22T21:23:12.180Z,100868.06
2022-10-22T21:25:43.270Z,100873.47
2022-10-22T21:28:12.330Z,100875.13
2022-10-22T21:30:45.833Z,100870.19
2022-10-22T21:33:13.784Z,100876.31
2022-10-22T21:35:41.303Z,100882.28
2022-10-22T21:38:08.865Z,100881.13
2022-10-22T21:40:38.360Z,100885.47
2022-10-22T21:43:06.404Z,100889.78
2022-10-22T21:48:03.141Z,100896.59
2022-10-22T21:50:31.249Z,100901.69
2022-10-22T21:52:58.953Z,100907.59
2022-10-22T21:55:26.636Z,100901.97
2022-10-22T21:57:55.683Z,100899.53
2022-10-22T22:00:23.554Z,100893.94
2022-10-22T22:02:52.121Z,100901.13
2022-10-22T22:05:21.981Z,100894.34
2022-10-22T22:07:49.567Z,100887.53
2022-10-22T22:10:17.144Z,100889.81
2022-10-22T22:12:44.949Z,100887.94
2022-10-22T22:15:14.518Z,100888.22
2022-10-22T22:17:42.061Z,100891.22
2022-10-22T22:20:11.360Z,100888.59
2022-10-22T22:22:39.209Z,100893.78
2022-10-22T22:25:07.287Z,100888.78
2022-10-22T22:27:35.733Z,100897.44
2022-10-22T22:30:04.636Z,100892.09
2022-10-22T22:32:34.099Z,100898.66
2022-10-22T22:35:01.846Z,100899.09
2022-10-22T22:37:29.534Z,100903.06
2022-10-22T22:39:57.149Z,100904.91
2022-10-22T22:42:24.672Z,100908.56
2022-10-22T22:44:52.383Z,100883.19
2022-10-22T22:47:20.546Z,100887.94
2022-10-22T22:49:49.449Z,100888.78
2022-10-22T22:52:17.090Z,100883.81
2022-10-22T22:54:44.640Z,100872.75
2022-10-22T22:57:12.389Z,100874.78
2022-10-22T22:59:40.688Z,100876.84
2022-10-22T23:02:08.406Z,100868.16
2022-10-22T23:04:35.936Z,100864.06
2022-10-22T23:07:05.322Z,100854.97
2022-10-22T23:09:32.878Z,100850.25
2022-10-22T23:12:00.958Z,100851.88
2022-10-22T23:14:28.685Z,100847.16
2022-10-22T23:16:56.223Z,100850.06
2022-10-22T23:19:24.245Z,100854.59
2022-10-22T23:21:54.798Z,100860.34
2022-10-22T23:24:26.007Z,100859.50
2022-10-22T23:26:55.377Z,100864.47
2022-10-22T23:29:25.175Z,100855.00
2022-10-22T23:31:53.606Z,100850.03
2022-10-22T23:34:23.585Z,100852.94
2022-10-22T23:36:52.783Z,100844.88
2022-10-22T23:39:23.880Z,100849.00
2022-10-22T23:41:51.778Z,100841.38
2022-10-22T23:44:19.783Z,100837.25
2022-10-22T23:46:47.839Z,100853.53
2022-10-22T23:49:15.650Z,100851.66
2022-10-22T23:51:43.489Z,100842.19
2022-10-22T23:54:14.752Z,100846.72
2022-10-22T23:56:44.525Z,100839.69
